createdAt,value
2023-01-20T00:01:17.348Z,4.07
2023-01-20T00:03:45.765Z,3.97
2023-01-20T00:06:13.743Z,3.57
2023-01-20T00:08:41.810Z,3.93
2023-01-20T00:11:11.341Z,3.50
2023-01-20T00:13:41.019Z,3.73
2023-01-20T00:16:11.457Z,3.63
2023-01-20T00:18:41.583Z,3.43
2023-01-20T00:21:11.671Z,3.80
2023-01-20T00:23:40.690Z,3.53
2023-01-20T00:26:10.590Z,3.50
2023-01-20T00:28:40.165Z,4.10
2023-01-20T00:31:12.933Z,3.20
2023-01-20T00:33:41.502Z,3.30
2023-01-20T00:36:10.859Z,3.53
2023-01-20T00:38:38.931Z,3.10
2023-01-20T00:41:07.720Z,3.20
2023-01-20T00:43:35.816Z,3.00
2023-01-20T00:46:05.963Z,3.03
2023-01-20T00:48:34.590Z,3.20
2023-01-20T00:51:03.042Z,3.37
2023-01-20T00:53:31.141Z,3.50
2023-01-20T00:55:59.092Z,3.40
2023-01-20T00:58:27.304Z,3.53
2023-01-20T01:00:56.314Z,3.63
2023-01-20T01:03:27.786Z,4.20
2023-01-20T01:05:55.870Z,4.27
2023-01-20T01:08:23.830Z,5.00
2023-01-20T01:10:56.191Z,5.17
2023-01-20T01:13:24.102Z,5.67
2023-01-20T01:15:52.794Z,5.50
2023-01-20T01:18:20.751Z,6.30
2023-01-20T01:20:49.987Z,6.87
2023-01-20T01:23:17.983Z,6.80
2023-01-20T01:25:45.834Z,5.70
2023-01-20T01:28:13.707Z,6.33
2023-01-20T01:30:41.675Z,6.00
2023-01-20T01:33:09.634Z,6.47
2023-01-20T01:35:37.532Z,6.60
2023-01-20T01:38:06.801Z,6.90
2023-01-20T01:40:35.457Z,6.00
2023-01-20T01:43:03.360Z,6.50
2023-01-20T01:45:34.028Z,6.80
2023-01-20T01:48:10.256Z,6.63
2023-01-20T01:50:45.552Z,6.33
2023-01-20T01:53:16.044Z,5.83
2023-01-20T01:55:48.530Z,6.57
2023-01-20T01:58:20.540Z,5.90
2023-01-20T02:00:48.727Z,6.43
2023-01-20T02:03:16.966Z,6.73
2023-01-20T02:05:45.874Z,5.87
2023-01-20T02:08:15.159Z,6.60
2023-01-20T02:10:43.004Z,6.50
2023-01-20T02:13:11.088Z,6.27
2023-01-20T02:15:45.863Z,6.47
2023-01-20T02:18:29.219Z,5.87
2023-01-20T02:21:29.909Z,6.33
2023-01-20T02:24:33.605Z,6.00
2023-01-20T02:27:09.566Z,6.60
2023-01-20T02:30:12.858Z,5.80
2023-01-20T02:32:56.180Z,6.30
2023-01-20T02:35:30.477Z,5.90
2023-01-20T02:38:11.872Z,6.50
2023-01-20T02:40:49.404Z,6.73
2023-01-20T02:43:21.987Z,7.03
2023-01-20T02:45:56.054Z,6.93
2023-01-20T02:48:30.048Z,7.07
2023-01-20T02:51:02.744Z,7.60
2023-01-20T02:53:37.411Z,8.23
2023-01-20T02:56:06.834Z,8.07
2023-01-20T02:58:38.861Z,8.93
2023-01-20T03:01:12.620Z,9.07
2023-01-20T03:03:46.454Z,9.73
2023-01-20T03:06:19.018Z,10.63
2023-01-20T03:08:48.470Z,10.70
2023-01-20T03:11:16.767Z,12.10
2023-01-20T03:13:51.012Z,11.47
2023-01-20T03:16:21.695Z,12.67
2023-01-20T03:18:52.106Z,13.00
2023-01-20T03:21:20.595Z,12.83
2023-01-20T03:23:52.060Z,13.30
2023-01-20T03:26:22.533Z,13.73
2023-01-20T03:28:50.969Z,15.03
2023-01-20T03:31:21.912Z,14.70
2023-01-20T03:33:55.929Z,15.07
2023-01-20T03:36:26.034Z,14.80
2023-01-20T03:38:55.669Z,15.50
2023-01-20T03:41:31.673Z,15.93
2023-01-20T03:44:12.302Z,14.93
2023-01-20T03:46:45.322Z,15.63
2023-01-20T03:49:24.437Z,15.17
2023-01-20T03:52:01.888Z,14.57
2023-01-20T03:54:35.337Z,14.90
2023-01-20T03:57:08.875Z,15.07
2023-01-20T03:59:41.190Z,15.83
2023-01-20T04:02:11.535Z,15.03
2023-01-20T04:04:44.345Z,15.00
2023-01-20T04:07:16.224Z,15.67
2023-01-20T04:09:50.449Z,14.90
2023-01-20T04:12:18.472Z,13.30
2023-01-20T04:14:46.697Z,14.67
2023-01-20T04:17:15.617Z,14.03
2023-01-20T04:19:44.904Z,13.30
2023-01-20T04:22:18.605Z,13.10
2023-01-20T04:24:51.931Z,13.93
2023-01-20T04:27:19.796Z,14.23
2023-01-20T04:29:47.645Z,13.20
2023-01-20T04:32:15.522Z,13.60
2023-01-20T04:34:44.851Z,13.43
2023-01-20T04:37:12.771Z,13.43
2023-01-20T04:39:40.686Z,14.13
2023-01-20T04:42:08.539Z,14.03
2023-01-20T04:44:36.349Z,13.53
2023-01-20T04:47:04.652Z,14.00
2023-01-20T04:49:32.577Z,14.60
2023-01-20T04:52:01.845Z,14.53
2023-01-20T04:54:29.791Z,14.60
2023-01-20T04:56:57.668Z,14.93
2023-01-20T04:59:25.648Z,14.90
2023-01-20T05:01:53.645Z,15.47
2023-01-20T05:04:21.757Z,15.50
2023-01-20T05:06:49.705Z,14.77
2023-01-20T05:09:19.012Z,15.30
2023-01-20T05:11:46.912Z,16.23
2023-01-20T05:14:15.599Z,15.93
2023-01-20T05:16:43.504Z,14.37
2023-01-20T05:19:12.828Z,15.13
2023-01-20T05:21:42.505Z,15.40
2023-01-20T05:24:10.740Z,15.80
2023-01-20T05:26:40.048Z,15.40
2023-01-20T05:29:09.127Z,15.87
2023-01-20T05:31:38.672Z,15.40
2023-01-20T05:34:06.643Z,15.23
2023-01-20T05:36:34.567Z,14.73
2023-01-20T05:39:02.479Z,14.93
2023-01-20T05:41:30.384Z,16.37
2023-01-20T05:43:59.629Z,15.97
2023-01-20T05:46:27.732Z,16.53
2023-01-20T05:48:55.741Z,16.17
2023-01-20T05:51:23.713Z,16.70
2023-01-20T05:53:51.658Z,15.93
2023-01-20T05:56:19.582Z,15.63
2023-01-20T05:58:47.523Z,16.73
2023-01-20T06:01:16.736Z,16.57
2023-01-20T06:03:44.678Z,15.73
2023-01-20T06:06:15.748Z,16.13
2023-01-20T06:08:43.671Z,17.70
2023-01-20T06:11:11.855Z,16.43
2023-01-20T06:13:40.272Z,18.17
2023-01-20T06:16:24.689Z,18.23
2023-01-20T06:18:52.563Z,17.80
2023-01-20T06:21:20.525Z,18.83
2023-01-20T06:23:48.545Z,17.93
2023-01-20T06:26:16.435Z,18.50
2023-01-20T06:28:44.469Z,18.03
2023-01-20T06:31:14.553Z,18.97
2023-01-20T06:33:44.721Z,17.70
2023-01-20T06:36:13.655Z,18.60
2023-01-20T06:38:41.836Z,19.03
2023-01-20T06:41:11.194Z,19.00
2023-01-20T06:43:41.846Z,18.70
2023-01-20T06:46:13.279Z,17.50
2023-01-20T06:48:41.352Z,18.87
2023-01-20T06:51:13.737Z,18.30
2023-01-20T06:53:41.731Z,18.97
2023-01-20T06:56:12.343Z,19.33
2023-01-20T06:58:41.120Z,18.73
2023-01-20T07:01:13.303Z,19.57
2023-01-20T07:03:43.856Z,18.90
2023-01-20T07:06:19.017Z,19.97
2023-01-20T07:08:47.508Z,19.77
2023-01-20T07:11:15.392Z,20.17
2023-01-20T07:13:43.388Z,18.73
2023-01-20T07:16:15.213Z,19.07
2023-01-20T07:18:43.852Z,19.87
2023-01-20T07:21:13.166Z,17.87
2023-01-20T07:23:42.536Z,18.17
2023-01-20T07:26:11.735Z,18.30
2023-01-20T07:28:40.287Z,18.00
2023-01-20T07:31:10.355Z,17.20
2023-01-20T07:33:39.108Z,18.30
2023-01-20T07:36:07.971Z,18.57
2023-01-20T07:38:36.669Z,17.43
2023-01-20T07:41:08.409Z,19.63
2023-01-20T07:43:36.330Z,17.37
2023-01-20T07:46:05.972Z,17.53
2023-01-20T07:48:34.788Z,18.30
2023-01-20T07:51:05.682Z,19.60
2023-01-20T07:53:35.511Z,19.23
2023-01-20T07:56:05.828Z,18.50
2023-01-20T07:58:34.396Z,19.87
2023-01-20T08:01:08.147Z,19.00
2023-01-20T08:03:36.463Z,20.03
2023-01-20T08:06:04.796Z,19.87
2023-01-20T08:08:33.143Z,18.77
2023-01-20T08:11:01.981Z,20.10
2023-01-20T08:13:31.823Z,19.07
2023-01-20T08:16:01.970Z,19.43
2023-01-20T08:18:30.011Z,19.30
2023-01-20T08:20:58.004Z,19.43
2023-01-20T08:23:25.924Z,17.60
2023-01-20T08:25:59.897Z,18.57
2023-01-20T08:28:27.926Z,18.90
2023-01-20T08:31:03.730Z,17.97
2023-01-20T08:33:31.722Z,17.87
2023-01-20T08:36:05.141Z,18.03
2023-01-20T08:38:33.004Z,18.43
2023-01-20T08:41:00.871Z,18.43
2023-01-20T08:43:28.994Z,17.90
2023-01-20T08:46:02.107Z,18.33
2023-01-20T08:48:30.134Z,17.03
2023-01-20T08:50:58.259Z,18.63
2023-01-20T08:53:26.467Z,17.13
2023-01-20T08:55:58.080Z,17.47
2023-01-20T08:58:26.580Z,17.97
2023-01-20T09:00:55.554Z,17.80
2023-01-20T09:03:24.952Z,18.87
2023-01-20T09:05:53.315Z,18.63
2023-01-20T09:08:22.327Z,19.53
2023-01-20T09:10:50.200Z,17.87
2023-01-20T09:13:18.104Z,19.07
2023-01-20T09:15:52.569Z,19.40
2023-01-20T09:18:20.570Z,18.27
2023-01-20T09:20:49.898Z,18.83
2023-01-20T09:23:17.860Z,19.00
2023-01-20T09:25:45.799Z,19.07
2023-01-20T09:28:14.292Z,18.03
2023-01-20T09:30:42.813Z,17.40
2023-01-20T09:33:11.395Z,18.43
2023-01-20T09:35:39.747Z,18.17
2023-01-20T09:38:27.824Z,18.00
2023-01-20T09:41:24.364Z,18.63
2023-01-20T09:43:59.307Z,18.30
2023-01-20T09:46:36.157Z,17.93
2023-01-20T09:49:36.481Z,17.60
2023-01-20T09:52:30.611Z,18.70
2023-01-20T09:55:05.425Z,17.40
2023-01-20T09:57:38.177Z,18.93
2023-01-20T10:00:10.338Z,18.43
2023-01-20T10:02:38.370Z,19.13
2023-01-20T10:05:13.158Z,18.83
2023-01-20T10:07:50.620Z,17.63
2023-01-20T10:10:24.332Z,17.67
2023-01-20T10:12:57.878Z,16.03
2023-01-20T10:15:28.845Z,17.53
2023-01-20T10:18:01.866Z,17.40
2023-01-20T10:20:35.931Z,16.57
2023-01-20T10:23:09.105Z,15.73
2023-01-20T10:25:46.208Z,16.27
2023-01-20T10:28:20.305Z,16.00
2023-01-20T10:30:49.514Z,15.53
2023-01-20T10:33:24.826Z,15.13
2023-01-20T10:35:55.303Z,14.63
2023-01-20T10:38:32.872Z,14.03
2023-01-20T10:41:09.426Z,14.23
2023-01-20T10:43:37.373Z,14.60
2023-01-20T10:46:18.897Z,14.73
2023-01-20T10:49:00.931Z,14.27
2023-01-20T10:51:37.634Z,13.60
2023-01-20T10:54:18.200Z,14.77
2023-01-20T10:56:53.516Z,14.80
2023-01-20T10:59:29.336Z,13.80
2023-01-20T11:02:11.381Z,13.47
2023-01-20T11:04:40.491Z,13.50
2023-01-20T11:07:16.889Z,13.77
2023-01-20T11:09:45.428Z,13.67
2023-01-20T11:12:18.436Z,13.90
2023-01-20T11:14:47.163Z,13.57
2023-01-20T11:17:17.638Z,13.73
2023-01-20T11:19:47.954Z,12.63
2023-01-20T11:22:20.705Z,13.57
2023-01-20T11:24:49.467Z,13.13
2023-01-20T11:27:22.009Z,13.77
2023-01-20T11:29:52.123Z,12.53
2023-01-20T11:32:29.069Z,11.73
2023-01-20T11:34:57.437Z,11.27
2023-01-20T11:37:26.841Z,11.00
2023-01-20T11:40:01.117Z,10.77
2023-01-20T11:42:32.030Z,11.67
2023-01-20T11:45:21.509Z,11.73
2023-01-20T11:48:02.045Z,10.23
2023-01-20T11:50:34.053Z,10.97
2023-01-20T11:53:20.008Z,10.37
2023-01-20T11:55:53.719Z,11.00
2023-01-20T11:58:25.404Z,10.90
2023-01-20T12:01:00.835Z,9.73
2023-01-20T12:03:58.596Z,9.13
2023-01-20T12:06:28.766Z,10.27
2023-01-20T12:09:01.553Z,9.87
2023-01-20T12:11:34.764Z,27.80
2023-01-20T12:14:23.247Z,26.57
2023-01-20T12:17:00.911Z,20.73
2023-01-20T12:19:35.375Z,22.10
2023-01-20T12:22:11.053Z,13.67
2023-01-20T12:25:02.812Z,39.33
2023-01-20T12:27:31.910Z,14.03
2023-01-20T12:30:06.050Z,15.90
2023-01-20T12:32:34.773Z,20.27
2023-01-20T12:35:02.643Z,13.67
2023-01-20T12:37:40.380Z,11.50
2023-01-20T12:40:25.785Z,10.53
2023-01-20T12:43:27.983Z,15.40
2023-01-20T12:46:24.306Z,9.53
2023-01-20T12:49:04.515Z,15.33
2023-01-20T12:51:42.035Z,13.30
2023-01-20T12:54:49.130Z,11.33
2023-01-20T12:57:25.396Z,10.60
2023-01-20T13:00:12.222Z,15.57
2023-01-20T13:03:02.873Z,10.30
2023-01-20T13:05:46.189Z,10.80
2023-01-20T13:08:23.162Z,9.90
2023-01-20T13:11:03.721Z,11.03
2023-01-20T13:13:55.941Z,10.93
2023-01-20T13:16:33.288Z,11.30
2023-01-20T13:19:12.201Z,11.20
2023-01-20T13:21:41.855Z,11.17
2023-01-20T13:24:18.879Z,11.40
2023-01-20T13:26:48.057Z,11.20
2023-01-20T13:29:23.543Z,11.37
2023-01-20T13:31:53.670Z,11.60
2023-01-20T13:34:40.899Z,10.80
2023-01-20T13:37:33.161Z,10.83
2023-01-20T13:40:01.457Z,10.97
2023-01-20T13:42:51.998Z,10.77
2023-01-20T13:45:25.635Z,10.43
2023-01-20T13:48:02.478Z,10.67
2023-01-20T13:50:34.470Z,12.43
2023-01-20T13:53:27.775Z,12.00
2023-01-20T13:56:00.772Z,12.67
2023-01-20T13:58:30.329Z,12.43
2023-01-20T14:01:00.171Z,12.07
2023-01-20T14:03:30.375Z,11.63
2023-01-20T14:06:01.657Z,11.77
2023-01-20T14:08:31.574Z,10.80
2023-01-20T14:11:12.192Z,11.80
2023-01-20T14:13:41.068Z,11.60
2023-01-20T14:16:20.338Z,11.90
2023-01-20T14:18:49.117Z,11.47
2023-01-20T14:21:21.304Z,11.47
2023-01-20T14:23:49.690Z,11.47
2023-01-20T14:26:22.887Z,11.67
2023-01-20T14:28:52.365Z,12.03
2023-01-20T14:31:37.503Z,11.90
2023-01-20T14:34:25.194Z,11.87
2023-01-20T14:36:56.877Z,11.13
2023-01-20T14:39:26.274Z,12.00
2023-01-20T14:41:55.801Z,12.00
2023-01-20T14:44:25.658Z,11.63
2023-01-20T14:46:55.231Z,11.27
2023-01-20T14:49:27.410Z,11.27
2023-01-20T14:51:57.155Z,10.80
2023-01-20T14:54:40.421Z,11.00
2023-01-20T14:57:26.476Z,10.63
2023-01-20T15:00:17.240Z,10.77
2023-01-20T15:02:58.012Z,10.53
2023-01-20T15:05:38.564Z,10.20
2023-01-20T15:08:25.472Z,10.77
2023-01-20T15:11:28.392Z,10.80
2023-01-20T15:14:12.666Z,10.30
2023-01-20T15:16:50.999Z,11.67
2023-01-20T15:19:40.872Z,10.00
2023-01-20T15:22:20.939Z,10.17
2023-01-20T15:24:51.017Z,11.00
2023-01-20T15:27:28.896Z,10.70
2023-01-20T15:30:01.859Z,10.27
2023-01-20T15:32:29.763Z,10.60
2023-01-20T15:34:57.807Z,11.50
2023-01-20T15:37:25.647Z,9.67
2023-01-20T15:39:54.874Z,10.30
2023-01-20T15:42:24.323Z,10.30
2023-01-20T15:44:52.307Z,10.37
2023-01-20T15:47:25.895Z,10.00
2023-01-20T15:49:53.873Z,9.67
2023-01-20T15:52:21.774Z,9.97
2023-01-20T15:54:49.633Z,10.37
2023-01-20T15:57:19.584Z,10.17
2023-01-20T15:59:49.708Z,10.40
2023-01-20T16:02:19.578Z,10.63
2023-01-20T16:04:47.595Z,10.17
2023-01-20T16:07:17.069Z,10.60
2023-01-20T16:09:46.626Z,9.63
2023-01-20T16:12:14.691Z,9.23
2023-01-20T16:14:44.962Z,9.83
2023-01-20T16:17:17.541Z,10.13
2023-01-20T16:19:45.476Z,9.87
2023-01-20T16:22:14.076Z,9.20
2023-01-20T16:24:42.340Z,10.17
2023-01-20T16:27:17.597Z,9.27
2023-01-20T16:29:46.996Z,9.37
2023-01-20T16:32:17.395Z,10.17
2023-01-20T16:34:46.707Z,9.30
2023-01-20T16:37:15.546Z,8.90
2023-01-20T16:39:43.488Z,8.77
2023-01-20T16:42:12.542Z,9.13
2023-01-20T16:44:40.498Z,9.00
2023-01-20T16:47:09.764Z,9.17
2023-01-20T16:49:38.580Z,8.67
2023-01-20T16:52:06.677Z,9.60
2023-01-20T16:54:34.596Z,10.17
2023-01-20T16:57:02.460Z,10.17
2023-01-20T16:59:30.561Z,10.17
2023-01-20T17:01:58.479Z,10.97
2023-01-20T17:04:29.390Z,9.73
2023-01-20T17:06:57.295Z,9.93
2023-01-20T17:09:25.203Z,10.83
2023-01-20T17:11:53.108Z,11.67
2023-01-20T17:14:20.975Z,11.07
2023-01-20T17:16:48.897Z,12.07
2023-01-20T17:19:17.801Z,12.77
2023-01-20T17:21:47.187Z,12.77
2023-01-20T17:24:15.089Z,13.10
2023-01-20T17:26:43.084Z,13.03
2023-01-20T17:29:11.697Z,13.33
2023-01-20T17:31:40.394Z,12.93
2023-01-20T17:34:08.571Z,13.53
2023-01-20T17:36:36.499Z,15.00
2023-01-20T17:39:07.330Z,14.03
2023-01-20T17:41:35.689Z,14.97
2023-01-20T17:44:03.979Z,15.57
2023-01-20T17:46:31.968Z,14.97
2023-01-20T17:49:01.865Z,15.13
2023-01-20T17:51:30.751Z,15.33
2023-01-20T17:54:01.852Z,14.30
2023-01-20T17:56:32.890Z,13.27
2023-01-20T17:59:00.776Z,14.40
2023-01-20T18:01:31.867Z,14.20
2023-01-20T18:04:00.831Z,14.10
2023-01-20T18:06:30.535Z,13.97
2023-01-20T18:09:00.476Z,14.13
2023-01-20T18:11:30.599Z,12.83
2023-01-20T18:14:00.706Z,13.97
2023-01-20T18:16:30.021Z,13.97
2023-01-20T18:18:59.435Z,13.63
2023-01-20T18:21:29.697Z,13.10
2023-01-20T18:23:58.339Z,12.83
2023-01-20T18:26:30.332Z,12.77
2023-01-20T18:29:01.233Z,12.43
2023-01-20T18:31:31.802Z,13.03
2023-01-20T18:34:01.910Z,13.37
2023-01-20T18:36:31.784Z,12.97
2023-01-20T18:39:01.312Z,12.87
2023-01-20T18:41:30.831Z,12.70
2023-01-20T18:44:00.176Z,12.07
2023-01-20T18:46:28.905Z,13.20
2023-01-20T18:48:57.234Z,12.70
2023-01-20T18:51:27.497Z,13.20
2023-01-20T18:53:56.958Z,13.57
2023-01-20T18:56:26.113Z,12.73
2023-01-20T18:58:55.195Z,14.27
2023-01-20T19:01:27.733Z,12.80
2023-01-20T19:03:56.190Z,14.03
2023-01-20T19:06:25.836Z,13.10
2023-01-20T19:08:54.333Z,14.57
2023-01-20T19:11:23.568Z,13.77
2023-01-20T19:13:53.383Z,14.17
2023-01-20T19:16:22.906Z,14.27
2023-01-20T19:18:54.059Z,15.07
2023-01-20T19:21:22.757Z,14.57
2023-01-20T19:23:51.720Z,14.83
2023-01-20T19:26:20.491Z,14.73
2023-01-20T19:28:49.569Z,15.30
2023-01-20T19:31:19.598Z,15.00
2023-01-20T19:33:48.850Z,14.93
2023-01-20T19:36:19.293Z,15.63
2023-01-20T19:38:47.296Z,14.57
2023-01-20T19:41:16.993Z,15.20
2023-01-20T19:43:45.806Z,15.60
2023-01-20T19:46:15.820Z,15.07
2023-01-20T19:48:44.363Z,15.73
2023-01-20T19:51:15.121Z,17.07
2023-01-20T19:53:45.207Z,17.10
2023-01-20T19:56:15.947Z,15.40
2023-01-20T19:58:44.593Z,15.60
2023-01-20T20:01:15.792Z,16.37
2023-01-20T20:03:44.585Z,17.30
2023-01-20T20:06:24.222Z,15.97
2023-01-20T20:08:56.711Z,17.57
2023-01-20T20:11:24.655Z,16.03
2023-01-20T20:13:55.728Z,16.33
2023-01-20T20:16:24.548Z,17.33
2023-01-20T20:18:53.286Z,17.60
2023-01-20T20:21:21.672Z,16.20
2023-01-20T20:23:51.306Z,16.87
2023-01-20T20:26:21.407Z,16.50
2023-01-20T20:28:50.985Z,16.83
2023-01-20T20:31:19.743Z,17.40
2023-01-20T20:33:47.841Z,18.17
2023-01-20T20:36:16.419Z,17.27
2023-01-20T20:38:51.233Z,17.30
2023-01-20T20:41:21.062Z,17.20
2023-01-20T20:43:48.944Z,17.50
2023-01-20T20:46:17.357Z,17.80
2023-01-20T20:48:45.251Z,17.77
2023-01-20T20:51:14.938Z,17.80
2023-01-20T20:53:43.548Z,17.63
2023-01-20T20:56:13.361Z,17.87
2023-01-20T20:59:00.037Z,18.07
2023-01-20T21:01:29.441Z,17.43
2023-01-20T21:03:57.952Z,18.20
2023-01-20T21:06:26.211Z,18.03
2023-01-20T21:08:54.553Z,19.03
2023-01-20T21:11:23.987Z,17.10
2023-01-20T21:13:53.813Z,17.83
2023-01-20T21:16:23.082Z,18.10
2023-01-20T21:18:52.196Z,18.10
2023-01-20T21:21:20.723Z,18.10
2023-01-20T21:23:52.969Z,17.90
2023-01-20T21:26:23.128Z,17.57
2023-01-20T21:28:51.073Z,17.77
2023-01-20T21:31:22.762Z,18.60
2023-01-20T21:33:54.081Z,17.10
2023-01-20T21:36:22.561Z,19.33
2023-01-20T21:38:51.372Z,17.20
2023-01-20T21:41:20.514Z,17.80
2023-01-20T21:44:03.300Z,18.03
2023-01-20T21:46:36.484Z,18.17
2023-01-20T21:49:23.817Z,18.60
2023-01-20T21:52:08.951Z,19.10
2023-01-20T21:54:39.304Z,19.47
2023-01-20T21:57:07.189Z,19.33
2023-01-20T21:59:35.140Z,19.43
2023-01-20T22:02:04.557Z,19.30
2023-01-20T22:04:33.088Z,18.80
2023-01-20T22:07:01.203Z,18.40
2023-01-20T22:09:29.047Z,18.53
2023-01-20T22:11:56.995Z,18.53
2023-01-20T22:14:24.960Z,19.20
2023-01-20T22:16:52.949Z,18.80
2023-01-20T22:19:22.240Z,18.10
2023-01-20T22:21:50.138Z,18.00
2023-01-20T22:24:18.388Z,19.10
2023-01-20T22:26:48.078Z,17.80
2023-01-20T22:29:16.247Z,18.80
2023-01-20T22:31:44.347Z,17.90
2023-01-20T22:34:12.449Z,17.93
2023-01-20T22:36:41.773Z,19.63
2023-01-20T22:39:11.849Z,19.23
2023-01-20T22:41:39.933Z,18.73
2023-01-20T22:44:08.220Z,19.40
2023-01-20T22:46:36.069Z,18.97
2023-01-20T22:49:03.955Z,18.47
2023-01-20T22:51:32.213Z,18.73
2023-01-20T22:54:02.306Z,18.37
2023-01-20T22:56:31.463Z,18.90
2023-01-20T22:59:00.295Z,18.83
2023-01-20T23:01:30.909Z,18.47
2023-01-20T23:04:00.479Z,18.07
2023-01-20T23:06:30.668Z,18.53
2023-01-20T23:08:58.540Z,17.73
2023-01-20T23:11:27.857Z,17.27
2023-01-20T23:13:55.765Z,18.03
2023-01-20T23:16:24.382Z,16.27
2023-01-20T23:18:53.100Z,17.73
2023-01-20T23:21:21.686Z,17.17
2023-01-20T23:23:54.253Z,17.80
2023-01-20T23:26:24.573Z,17.93
2023-01-20T23:28:55.146Z,16.83
2023-01-20T23:31:24.174Z,16.70
2023-01-20T23:33:53.862Z,17.50
2023-01-20T23:36:24.047Z,16.93
2023-01-20T23:38:53.755Z,16.93
2023-01-20T23:41:21.728Z,15.67
2023-01-20T23:43:49.691Z,16.27
2023-01-20T23:46:19.030Z,15.90
2023-01-20T23:48:47.827Z,15.60
2023-01-20T23:51:16.287Z,15.40
2023-01-20T23:53:44.322Z,16.20
2023-01-20T23:56:14.380Z,14.77
2023-01-20T23:58:42.798Z,15.67
